Sterling, Idaho
Current Conditions -  °F | °C
As of 4:53 AM on Friday 31 Oct 2014 (Local Time) from KPIH Reporting Station
Clear Clear  
Wind Chill: 36°   Ceiling: Unl
Heat Index: 39°   Visibility: 10mi
Dew Point: 32°   Wind: 5mph
Humidity: 76%   Direction: NA
Pressure: 29.99"   Gusts: NA
Location:  43.1849°N, 112.825°W
Report Text: KPIH 311053Z AUTO VRB04KT 10SM CLR 04/00 A2999 RMK AO2 SLP132 T00390000
Loading
Personal Weather Stations






























Interactive Weather Map
Tropical Storm Tracking
New forecast layout! Learn more

10-Day Weather Forecast

Advertisements
Track Severe Weather on mobile